Thisseas — A8YE2 — position and weather

sailwx.info

Track history (hours):
 
Tides and Currents Weather Stations Pressure Air Temp Water Temp Dewpoint Dewpoint Depression Visibility Wind Speed Wind Dir Waves Ship Positions

Thisseas

Last reported at 2017-Nov-18 10:23 UTC. Time now 2017-Nov-23 22:19 UTC.
Position N 36°26' E 014°45'.

Length 225 m; draft 13.7 m.

Type: Cargo ship. MMSI: 636015033.

Date/timePositionNaut miles runAvg speedWind from/ knotsBaromVisibWave heightAir tempDewpointWater temp
2017-Nov-18 10:23N 36°26' E 014°45'512.3
2017-Nov-18 10:00N 36°26' E 014°39'612.5
2017-Nov-18 09:29N 36°28' E 014°31'612.3
2017-Nov-18 09:00N 36°30' E 014°24'612.2
2017-Nov-18 08:30N 36°32' E 014°17'612.2
2017-Nov-18 08:00N 36°34' E 014°09'612.2
2017-Nov-18 07:29N 36°36' E 014°02'712.2
2017-Nov-18 06:54N 36°38' E 013°53'812.3
2017-Nov-18 06:16N 36°40' E 013°44'  
2017-Nov-15 01:12N 36°05' W 005°17'210.6
2017-Nov-15 00:59N 36°05' W 005°19'4 8.0
2017-Nov-15 00:28N 36°07' W 005°23'1 2.5
2017-Nov-14 23:52N 36°09' W 005°23'0 0.0
2017-Nov-14 21:01N 36°09' W 005°23'0 0.1
2017-Nov-14 20:58N 36°09' W 005°23'6 0.6
2017-Nov-14 10:57N 36°03' W 005°21'3 6.2
2017-Nov-14 10:29N 36°00' W 005°20'612.2
2017-Nov-14 10:00N 35°58' W 005°26'  
2017-Nov-11 00:04N 38°43' W 024°03'611.0
2017-Nov-10 23:32N 38°44' W 024°10'111.2
2017-Nov-10 23:26N 38°44' W 024°12'611.0
2017-Nov-10 22:53N 38°46' W 024°19'410.7
2017-Nov-10 22:30N 38°46' W 024°24'610.7
2017-Nov-10 21:59N 38°48' W 024°31'510.8
2017-Nov-10 21:30N 38°49' W 024°38'510.7
2017-Nov-10 21:00N 38°50' W 024°44'510.6
2017-Nov-10 20:30N 38°51' W 024°51'610.8
2017-Nov-10 19:56N 38°53' W 024°59'510.7
2017-Nov-10 19:29N 38°54' W 025°05'510.9
2017-Nov-10 19:00N 38°55' W 025°11'611.0
2017-Nov-10 18:30N 38°56' W 025°18'7310.9
2017-Nov-10 11:45N 39°12' W 026°51'310.9
2017-Nov-10 11:30N 39°13' W 026°54'710.9
2017-Nov-10 10:49N 39°14' W 027°03'310.7
2017-Nov-10 10:30N 39°15' W 027°08'510.8
2017-Nov-10 10:00N 39°16' W 027°14'510.6
2017-Nov-10 09:30N 39°17' W 027°21'510.8
2017-Nov-10 09:00N 39°19' W 027°28'510.6
2017-Nov-10 08:30N 39°20' W 027°35'510.6
2017-Nov-10 08:01N 39°21' W 027°41'510.7
2017-Nov-10 07:30N 39°22' W 027°48'510.6
2017-Nov-10 07:00N 39°23' W 027°55'510.5
2017-Nov-10 06:30N 39°24' W 028°01'510.7
2017-Nov-10 06:00N 39°26' W 028°08'510.7
2017-Nov-10 05:30N 39°27' W 028°15'510.7
2017-Nov-10 05:00N 39°28' W 028°21'510.6
2017-Nov-10 04:31N 39°29' W 028°28'510.5
2017-Nov-10 04:00N 39°30' W 028°35'510.7
2017-Nov-10 03:30N 39°31' W 028°42'510.5
2017-Nov-10 03:01N 39°33' W 028°48'510.5
2017-Nov-10 02:30N 39°34' W 028°55'510.8
2017-Nov-10 02:00N 39°35' W 029°02'510.9
2017-Nov-10 01:31N 39°36' W 029°09'510.8
2017-Nov-10 01:00N 39°37' W 029°15'510.8
2017-Nov-10 00:30N 39°38' W 029°22'510.7
2017-Nov-10 00:01N 39°40' W 029°29'510.8
2017-Nov-09 23:30N 39°41' W 029°36'510.6
2017-Nov-09 23:00N 39°42' W 029°43'511.0
2017-Nov-09 22:30N 39°43' W 029°50'611.2
2017-Nov-09 22:00N 39°44' W 029°57'510.8
2017-Nov-09 21:30N 39°46' W 030°04'510.7
2017-Nov-09 21:00N 39°47' W 030°10'4111.0
2017-Nov-09 17:19N 39°56' W 031°02'511.3
2017-Nov-09 16:51N 39°57' W 031°09'411.3
2017-Nov-09 16:30N 39°58' W 031°14'710.9
2017-Nov-09 15:49N 39°59' W 031°23'710.7
2017-Nov-09 15:11N 40°00' W 031°32'410.9
2017-Nov-09 14:48N 40°01' W 031°38'310.9
2017-Nov-09 14:30N 40°01' W 031°42'510.8
2017-Nov-09 14:00N 40°02' W 031°48'  
Track history (hours):
 
Tides and Currents Weather Stations Pressure Air Temp Water Temp Dewpoint Dewpoint Depression Visibility Wind Speed Wind Dir Waves Ship Positions

Thisseas

Last reported at 2017-Nov-18 10:23 UTC. Time now 2017-Nov-23 22:19 UTC.
Position N 36°26' E 014°45'.

Length 225 m; draft 13.7 m.

Type: Cargo ship. MMSI: 636015033.

Date/timePositionNaut miles runAvg speedWind from/ knotsBaromVisibWave heightAir tempDewpointWater temp
2017-Nov-18 10:23N 36°26' E 014°45'512.3
2017-Nov-18 10:00N 36°26' E 014°39'612.5
2017-Nov-18 09:29N 36°28' E 014°31'612.3
2017-Nov-18 09:00N 36°30' E 014°24'612.2
2017-Nov-18 08:30N 36°32' E 014°17'612.2
2017-Nov-18 08:00N 36°34' E 014°09'612.2
2017-Nov-18 07:29N 36°36' E 014°02'712.2
2017-Nov-18 06:54N 36°38' E 013°53'812.3
2017-Nov-18 06:16N 36°40' E 013°44'  
2017-Nov-15 01:12N 36°05' W 005°17'210.6
2017-Nov-15 00:59N 36°05' W 005°19'4 8.0
2017-Nov-15 00:28N 36°07' W 005°23'1 2.5
2017-Nov-14 23:52N 36°09' W 005°23'0 0.0
2017-Nov-14 21:01N 36°09' W 005°23'0 0.1
2017-Nov-14 20:58N 36°09' W 005°23'6 0.6
2017-Nov-14 10:57N 36°03' W 005°21'3 6.2
2017-Nov-14 10:29N 36°00' W 005°20'612.2
2017-Nov-14 10:00N 35°58' W 005°26'  
2017-Nov-11 00:04N 38°43' W 024°03'611.0
2017-Nov-10 23:32N 38°44' W 024°10'111.2
2017-Nov-10 23:26N 38°44' W 024°12'611.0
2017-Nov-10 22:53N 38°46' W 024°19'410.7
2017-Nov-10 22:30N 38°46' W 024°24'610.7
2017-Nov-10 21:59N 38°48' W 024°31'510.8
2017-Nov-10 21:30N 38°49' W 024°38'510.7
2017-Nov-10 21:00N 38°50' W 024°44'510.6
2017-Nov-10 20:30N 38°51' W 024°51'610.8
2017-Nov-10 19:56N 38°53' W 024°59'510.7
2017-Nov-10 19:29N 38°54' W 025°05'510.9
2017-Nov-10 19:00N 38°55' W 025°11'611.0
2017-Nov-10 18:30N 38°56' W 025°18'7310.9
2017-Nov-10 11:45N 39°12' W 026°51'310.9
2017-Nov-10 11:30N 39°13' W 026°54'710.9
2017-Nov-10 10:49N 39°14' W 027°03'310.7
2017-Nov-10 10:30N 39°15' W 027°08'510.8
2017-Nov-10 10:00N 39°16' W 027°14'510.6
2017-Nov-10 09:30N 39°17' W 027°21'510.8
2017-Nov-10 09:00N 39°19' W 027°28'510.6
2017-Nov-10 08:30N 39°20' W 027°35'510.6
2017-Nov-10 08:01N 39°21' W 027°41'510.7
2017-Nov-10 07:30N 39°22' W 027°48'510.6
2017-Nov-10 07:00N 39°23' W 027°55'510.5
2017-Nov-10 06:30N 39°24' W 028°01'510.7
2017-Nov-10 06:00N 39°26' W 028°08'510.7
2017-Nov-10 05:30N 39°27' W 028°15'510.7
2017-Nov-10 05:00N 39°28' W 028°21'510.6
2017-Nov-10 04:31N 39°29' W 028°28'510.5
2017-Nov-10 04:00N 39°30' W 028°35'510.7
2017-Nov-10 03:30N 39°31' W 028°42'510.5
2017-Nov-10 03:01N 39°33' W 028°48'510.5
2017-Nov-10 02:30N 39°34' W 028°55'510.8
2017-Nov-10 02:00N 39°35' W 029°02'510.9
2017-Nov-10 01:31N 39°36' W 029°09'510.8
2017-Nov-10 01:00N 39°37' W 029°15'510.8
2017-Nov-10 00:30N 39°38' W 029°22'510.7
2017-Nov-10 00:01N 39°40' W 029°29'510.8
2017-Nov-09 23:30N 39°41' W 029°36'510.6
2017-Nov-09 23:00N 39°42' W 029°43'511.0
2017-Nov-09 22:30N 39°43' W 029°50'611.2
2017-Nov-09 22:00N 39°44' W 029°57'510.8
2017-Nov-09 21:30N 39°46' W 030°04'510.7
2017-Nov-09 21:00N 39°47' W 030°10'4111.0
2017-Nov-09 17:19N 39°56' W 031°02'511.3
2017-Nov-09 16:51N 39°57' W 031°09'411.3
2017-Nov-09 16:30N 39°58' W 031°14'710.9
2017-Nov-09 15:49N 39°59' W 031°23'710.7
2017-Nov-09 15:11N 40°00' W 031°32'410.9
2017-Nov-09 14:48N 40°01' W 031°38'310.9
2017-Nov-09 14:30N 40°01' W 031°42'510.8
2017-Nov-09 14:00N 40°02' W 031°48'  

Dump ship's entire track history